X07 weather

Lake Wales Municipal Airport
Lake Wales, Florida, United States

Public forecast

Using degrees Fahrenheit for public forecast. Weather courtesy of forecast.io.

METAR (pilot weather report)

Closest report is Bartow Municipal Airport, 9.1 nm (16.9 km) WNW. Retrieved 2019/09/16 08:35 UTC (0 seconds ago):

KBOW 160835Z AUTO 32005KT 10SM CLR 25/24 A2993 RMK AO2

TAF (pilot weather forecast)

Closest forecast is Lakeland Linder International Airport, 21.9 nm (40.5 km) WNW. Retrieved 2019/09/16 06:24 UTC (2 hours ago):

TAF KLAL 160523Z 1606/1706 VRB03KT P6SM SCT070 FM161100 35004KT P6SM BKN025 FM161500 34008KT P6SM SCT040 SCT200 FM170200 VRB03KT P6SM SCT040 AMD NOT SKED TIL 161100